sensor_id;sensor_type;location;lat;lon;timestamp;temperature;humidity
28175;SHT30;59417;44.788;10.334;2022-07-22T00:00:23;29.91;46.42
28175;SHT30;59417;44.788;10.334;2022-07-22T00:02:49;29.94;45.91
28175;SHT30;59417;44.788;10.334;2022-07-22T00:05:14;30.00;46.49
28175;SHT30;59417;44.788;10.334;2022-07-22T00:07:40;29.87;46.09
28175;SHT30;59417;44.788;10.334;2022-07-22T00:10:08;29.90;46.00
28175;SHT30;59417;44.788;10.334;2022-07-22T00:12:36;29.83;47.15
28175;SHT30;59417;44.788;10.334;2022-07-22T00:15:03;29.70;47.20
28175;SHT30;59417;44.788;10.334;2022-07-22T00:17:30;29.74;46.98
28175;SHT30;59417;44.788;10.334;2022-07-22T00:19:56;29.64;47.39
28175;SHT30;59417;44.788;10.334;2022-07-22T00:22:27;29.64;47.28
28175;SHT30;59417;44.788;10.334;2022-07-22T00:24:53;29.56;47.42
28175;SHT30;59417;44.788;10.334;2022-07-22T00:27:19;29.49;47.43
28175;SHT30;59417;44.788;10.334;2022-07-22T00:29:45;29.39;47.25
28175;SHT30;59417;44.788;10.334;2022-07-22T00:32:11;29.50;47.35
28175;SHT30;59417;44.788;10.334;2022-07-22T00:34:37;29.36;47.14
28175;SHT30;59417;44.788;10.334;2022-07-22T00:37:06;29.20;47.21
28175;SHT30;59417;44.788;10.334;2022-07-22T00:39:32;29.33;46.57
28175;SHT30;59417;44.788;10.334;2022-07-22T00:41:59;29.42;46.44
28175;SHT30;59417;44.788;10.334;2022-07-22T00:44:25;29.50;46.22
28175;SHT30;59417;44.788;10.334;2022-07-22T00:46:54;29.57;46.12
28175;SHT30;59417;44.788;10.334;2022-07-22T00:49:22;29.49;46.26
28175;SHT30;59417;44.788;10.334;2022-07-22T00:51:48;29.50;46.11
28175;SHT30;59417;44.788;10.334;2022-07-22T00:54:14;29.53;46.30
28175;SHT30;59417;44.788;10.334;2022-07-22T00:56:40;29.45;46.45
28175;SHT30;59417;44.788;10.334;2022-07-22T00:59:09;29.46;46.45
28175;SHT30;59417;44.788;10.334;2022-07-22T01:01:35;29.54;45.95
28175;SHT30;59417;44.788;10.334;2022-07-22T01:04:12;29.57;45.79
28175;SHT30;59417;44.788;10.334;2022-07-22T01:06:38;29.61;45.82
28175;SHT30;59417;44.788;10.334;2022-07-22T01:09:04;29.56;46.24
28175;SHT30;59417;44.788;10.334;2022-07-22T01:11:30;29.47;46.18
28175;SHT30;59417;44.788;10.334;2022-07-22T01:13:56;29.28;46.44
28175;SHT30;59417;44.788;10.334;2022-07-22T01:16:24;29.23;46.20
28175;SHT30;59417;44.788;10.334;2022-07-22T01:18:50;29.26;46.22
28175;SHT30;59417;44.788;10.334;2022-07-22T01:21:18;29.20;46.54
28175;SHT30;59417;44.788;10.334;2022-07-22T01:23:44;29.10;46.91
28175;SHT30;59417;44.788;10.334;2022-07-22T01:26:14;29.08;47.13
28175;SHT30;59417;44.788;10.334;2022-07-22T01:28:41;29.13;47.22
28175;SHT30;59417;44.788;10.334;2022-07-22T01:31:07;29.15;47.42
28175;SHT30;59417;44.788;10.334;2022-07-22T01:33:33;29.09;47.54
28175;SHT30;59417;44.788;10.334;2022-07-22T01:36:00;29.19;47.56
28175;SHT30;59417;44.788;10.334;2022-07-22T01:38:26;29.22;47.90
28175;SHT30;59417;44.788;10.334;2022-07-22T01:40:52;29.15;48.69
28175;SHT30;59417;44.788;10.334;2022-07-22T01:43:18;29.00;49.13
28175;SHT30;59417;44.788;10.334;2022-07-22T01:45:50;28.96;48.68
28175;SHT30;59417;44.788;10.334;2022-07-22T01:48:20;28.96;48.42
28175;SHT30;59417;44.788;10.334;2022-07-22T01:50:46;28.99;49.08
28175;SHT30;59417;44.788;10.334;2022-07-22T01:53:13;28.88;49.53
28175;SHT30;59417;44.788;10.334;2022-07-22T01:55:39;28.79;49.44
28175;SHT30;59417;44.788;10.334;2022-07-22T01:58:06;28.65;49.68
28175;SHT30;59417;44.788;10.334;2022-07-22T02:00:34;28.74;49.33
28175;SHT30;59417;44.788;10.334;2022-07-22T02:03:02;28.49;49.93
28175;SHT30;59417;44.788;10.334;2022-07-22T02:05:28;28.40;50.28
28175;SHT30;59417;44.788;10.334;2022-07-22T02:08:07;28.09;48.40
28175;SHT30;59417;44.788;10.334;2022-07-22T02:10:55;28.27;44.93
28175;SHT30;59417;44.788;10.334;2022-07-22T02:13:22;28.45;44.38
28175;SHT30;59417;44.788;10.334;2022-07-22T02:15:48;28.48;42.84
28175;SHT30;59417;44.788;10.334;2022-07-22T02:18:17;28.45;43.78
28175;SHT30;59417;44.788;10.334;2022-07-22T02:20:46;28.44;46.22
28175;SHT30;59417;44.788;10.334;2022-07-22T02:23:14;28.49;45.28
28175;SHT30;59417;44.788;10.334;2022-07-22T02:25:40;28.47;43.92
28175;SHT30;59417;44.788;10.334;2022-07-22T02:28:07;28.48;43.74
28175;SHT30;59417;44.788;10.334;2022-07-22T02:30:33;28.26;43.40
28175;SHT30;59417;44.788;10.334;2022-07-22T02:32:59;27.93;44.96
28175;SHT30;59417;44.788;10.334;2022-07-22T02:35:25;27.90;45.02
28175;SHT30;59417;44.788;10.334;2022-07-22T02:37:51;27.90;45.33
28175;SHT30;59417;44.788;10.334;2022-07-22T02:40:17;27.99;44.73
28175;SHT30;59417;44.788;10.334;2022-07-22T02:42:43;27.96;44.63
28175;SHT30;59417;44.788;10.334;2022-07-22T02:45:09;27.86;44.60
28175;SHT30;59417;44.788;10.334;2022-07-22T02:47:35;27.86;43.98
28175;SHT30;59417;44.788;10.334;2022-07-22T02:50:11;27.69;45.07
28175;SHT30;59417;44.788;10.334;2022-07-22T02:52:36;27.72;44.88
28175;SHT30;59417;44.788;10.334;2022-07-22T02:55:03;27.66;45.44
28175;SHT30;59417;44.788;10.334;2022-07-22T02:57:31;27.63;45.21
28175;SHT30;59417;44.788;10.334;2022-07-22T02:59:57;27.61;45.55
28175;SHT30;59417;44.788;10.334;2022-07-22T03:02:23;27.49;46.16
28175;SHT30;59417;44.788;10.334;2022-07-22T03:04:49;27.41;46.94
28175;SHT30;59417;44.788;10.334;2022-07-22T03:07:15;27.39;46.76
28175;SHT30;59417;44.788;10.334;2022-07-22T03:09:41;27.49;46.73
28175;SHT30;59417;44.788;10.334;2022-07-22T03:12:10;27.58;46.94
28175;SHT30;59417;44.788;10.334;2022-07-22T03:14:36;27.49;48.04
28175;SHT30;59417;44.788;10.334;2022-07-22T03:17:02;27.42;47.56
28175;SHT30;59417;44.788;10.334;2022-07-22T03:19:28;27.48;48.11
28175;SHT30;59417;44.788;10.334;2022-07-22T03:21:55;27.55;47.92
28175;SHT30;59417;44.788;10.334;2022-07-22T03:24:21;27.56;47.98
28175;SHT30;59417;44.788;10.334;2022-07-22T03:26:47;27.55;48.64
28175;SHT30;59417;44.788;10.334;2022-07-22T03:29:13;27.46;49.02
28175;SHT30;59417;44.788;10.334;2022-07-22T03:31:39;27.39;48.29
28175;SHT30;59417;44.788;10.334;2022-07-22T03:34:05;27.29;47.99
28175;SHT30;59417;44.788;10.334;2022-07-22T03:36:35;27.28;47.88
28175;SHT30;59417;44.788;10.334;2022-07-22T03:39:01;27.22;49.01
28175;SHT30;59417;44.788;10.334;2022-07-22T03:41:27;27.19;48.71
28175;SHT30;59417;44.788;10.334;2022-07-22T03:43:53;27.15;48.59
28175;SHT30;59417;44.788;10.334;2022-07-22T03:46:19;27.18;48.83
28175;SHT30;59417;44.788;10.334;2022-07-22T03:48:45;27.16;49.02
28175;SHT30;59417;44.788;10.334;2022-07-22T03:51:12;27.15;49.37
28175;SHT30;59417;44.788;10.334;2022-07-22T03:53:38;27.22;48.97
28175;SHT30;59417;44.788;10.334;2022-07-22T03:56:04;27.24;48.81
28175;SHT30;59417;44.788;10.334;2022-07-22T03:58:31;27.22;48.65
28175;SHT30;59417;44.788;10.334;2022-07-22T04:00:59;27.16;49.54
28175;SHT30;59417;44.788;10.334;2022-07-22T04:03:24;27.08;48.62
28175;SHT30;59417;44.788;10.334;2022-07-22T04:05:53;27.12;48.58
28175;SHT30;59417;44.788;10.334;2022-07-22T04:08:29;27.11;48.40
28175;SHT30;59417;44.788;10.334;2022-07-22T04:10:55;27.10;49.45
28175;SHT30;59417;44.788;10.334;2022-07-22T04:13:21;27.10;50.01
28175;SHT30;59417;44.788;10.334;2022-07-22T04:15:52;26.95;49.29
28175;SHT30;59417;44.788;10.334;2022-07-22T04:18:17;26.84;49.32
28175;SHT30;59417;44.788;10.334;2022-07-22T04:20:44;26.81;49.26
28175;SHT30;59417;44.788;10.334;2022-07-22T04:23:24;26.77;49.45
28175;SHT30;59417;44.788;10.334;2022-07-22T04:25:58;26.95;49.47
28175;SHT30;59417;44.788;10.334;2022-07-22T04:28:24;26.97;49.61
28175;SHT30;59417;44.788;10.334;2022-07-22T04:30:49;27.02;49.10
28175;SHT30;59417;44.788;10.334;2022-07-22T04:33:15;27.10;49.05
28175;SHT30;59417;44.788;10.334;2022-07-22T04:35:41;27.15;47.91
28175;SHT30;59417;44.788;10.334;2022-07-22T04:38:17;27.16;47.11
28175;SHT30;59417;44.788;10.334;2022-07-22T04:40:52;27.15;46.45
28175;SHT30;59417;44.788;10.334;2022-07-22T04:43:18;27.19;46.36
28175;SHT30;59417;44.788;10.334;2022-07-22T04:45:44;27.24;46.12
28175;SHT30;59417;44.788;10.334;2022-07-22T04:48:10;27.31;45.39
28175;SHT30;59417;44.788;10.334;2022-07-22T04:50:37;27.29;45.47
28175;SHT30;59417;44.788;10.334;2022-07-22T04:53:03;27.34;45.50
28175;SHT30;59417;44.788;10.334;2022-07-22T04:55:29;27.25;45.74
28175;SHT30;59417;44.788;10.334;2022-07-22T04:57:55;27.26;46.24
28175;SHT30;59417;44.788;10.334;2022-07-22T05:00:21;27.28;46.19
28175;SHT30;59417;44.788;10.334;2022-07-22T05:02:53;27.31;46.00
28175;SHT30;59417;44.788;10.334;2022-07-22T05:05:20;27.29;46.41
28175;SHT30;59417;44.788;10.334;2022-07-22T05:07:45;27.24;46.78
28175;SHT30;59417;44.788;10.334;2022-07-22T05:10:11;27.19;47.88
28175;SHT30;59417;44.788;10.334;2022-07-22T05:12:37;27.10;48.10
28175;SHT30;59417;44.788;10.334;2022-07-22T05:15:03;27.10;47.27
28175;SHT30;59417;44.788;10.334;2022-07-22T05:17:29;27.12;47.04
28175;SHT30;59417;44.788;10.334;2022-07-22T05:20:21;27.07;47.50
28175;SHT30;59417;44.788;10.334;2022-07-22T05:22:46;27.12;47.19
28175;SHT30;59417;44.788;10.334;2022-07-22T05:25:16;27.10;47.33
28175;SHT30;59417;44.788;10.334;2022-07-22T05:27:50;27.07;46.95
28175;SHT30;59417;44.788;10.334;2022-07-22T05:30:18;27.05;46.89
28175;SHT30;59417;44.788;10.334;2022-07-22T05:32:44;27.11;46.65
28175;SHT30;59417;44.788;10.334;2022-07-22T05:35:12;27.08;47.03
28175;SHT30;59417;44.788;10.334;2022-07-22T05:37:37;27.16;46.87
28175;SHT30;59417;44.788;10.334;2022-07-22T05:40:04;27.19;46.44
28175;SHT30;59417;44.788;10.334;2022-07-22T05:42:29;27.26;47.01
28175;SHT30;59417;44.788;10.334;2022-07-22T05:44:55;27.34;47.32
28175;SHT30;59417;44.788;10.334;2022-07-22T05:47:21;27.44;47.43
28175;SHT30;59417;44.788;10.334;2022-07-22T05:49:47;27.48;46.74
28175;SHT30;59417;44.788;10.334;2022-07-22T05:52:13;27.45;46.40
28175;SHT30;59417;44.788;10.334;2022-07-22T05:54:42;27.62;46.84
28175;SHT30;59417;44.788;10.334;2022-07-22T05:57:08;27.65;45.74
28175;SHT30;59417;44.788;10.334;2022-07-22T05:59:36;27.67;46.45
28175;SHT30;59417;44.788;10.334;2022-07-22T06:02:03;27.76;46.47
28175;SHT30;59417;44.788;10.334;2022-07-22T06:04:45;27.80;46.27
28175;SHT30;59417;44.788;10.334;2022-07-22T06:07:12;27.87;45.87
28175;SHT30;59417;44.788;10.334;2022-07-22T06:09:40;27.89;45.77
28175;SHT30;59417;44.788;10.334;2022-07-22T06:12:06;27.94;45.41
28175;SHT30;59417;44.788;10.334;2022-07-22T06:14:32;27.93;45.69
28175;SHT30;59417;44.788;10.334;2022-07-22T06:16:58;27.93;45.67
28175;SHT30;59417;44.788;10.334;2022-07-22T06:19:24;28.00;46.01
28175;SHT30;59417;44.788;10.334;2022-07-22T06:21:53;28.12;46.09
28175;SHT30;59417;44.788;10.334;2022-07-22T06:24:19;28.18;46.55
28175;SHT30;59417;44.788;10.334;2022-07-22T06:26:45;28.31;46.45
28175;SHT30;59417;44.788;10.334;2022-07-22T06:29:11;28.26;46.14
28175;SHT30;59417;44.788;10.334;2022-07-22T06:31:37;28.24;46.59
28175;SHT30;59417;44.788;10.334;2022-07-22T06:34:06;28.20;46.26
28175;SHT30;59417;44.788;10.334;2022-07-22T06:36:46;28.30;46.68
28175;SHT30;59417;44.788;10.334;2022-07-22T06:39:12;28.34;46.99
28175;SHT30;59417;44.788;10.334;2022-07-22T06:41:37;28.28;47.46
28175;SHT30;59417;44.788;10.334;2022-07-22T06:44:03;28.20;47.62
28175;SHT30;59417;44.788;10.334;2022-07-22T06:46:52;28.31;47.94
28175;SHT30;59417;44.788;10.334;2022-07-22T06:49:19;28.33;47.63
28175;SHT30;59417;44.788;10.334;2022-07-22T06:51:45;28.47;47.20
28175;SHT30;59417;44.788;10.334;2022-07-22T06:54:11;28.44;47.85
28175;SHT30;59417;44.788;10.334;2022-07-22T06:56:36;28.58;46.74
28175;SHT30;59417;44.788;10.334;2022-07-22T06:59:03;28.47;48.30
28175;SHT30;59417;44.788;10.334;2022-07-22T07:01:29;28.57;47.39
28175;SHT30;59417;44.788;10.334;2022-07-22T07:03:59;28.64;47.25
28175;SHT30;59417;44.788;10.334;2022-07-22T07:06:25;28.55;47.28
28175;SHT30;59417;44.788;10.334;2022-07-22T07:09:09;28.67;47.92
28175;SHT30;59417;44.788;10.334;2022-07-22T07:11:35;28.71;47.06
28175;SHT30;59417;44.788;10.334;2022-07-22T07:14:07;28.77;47.22
28175;SHT30;59417;44.788;10.334;2022-07-22T07:16:32;28.82;47.45
28175;SHT30;59417;44.788;10.334;2022-07-22T07:18:58;28.81;47.41
28175;SHT30;59417;44.788;10.334;2022-07-22T07:21:26;28.79;47.74
28175;SHT30;59417;44.788;10.334;2022-07-22T07:23:52;28.68;47.94
28175;SHT30;59417;44.788;10.334;2022-07-22T07:26:18;28.63;48.39
28175;SHT30;59417;44.788;10.334;2022-07-22T07:28:45;28.79;48.27
28175;SHT30;59417;44.788;10.334;2022-07-22T07:31:17;28.81;48.22
28175;SHT30;59417;44.788;10.334;2022-07-22T07:33:43;28.92;48.06
28175;SHT30;59417;44.788;10.334;2022-07-22T07:36:10;28.96;48.37
28175;SHT30;59417;44.788;10.334;2022-07-22T07:38:41;29.06;48.66
28175;SHT30;59417;44.788;10.334;2022-07-22T07:41:11;29.05;48.52
28175;SHT30;59417;44.788;10.334;2022-07-22T07:43:39;29.02;48.83
28175;SHT30;59417;44.788;10.334;2022-07-22T07:46:05;29.18;49.39
28175;SHT30;59417;44.788;10.334;2022-07-22T07:48:30;29.33;49.23
28175;SHT30;59417;44.788;10.334;2022-07-22T07:50:57;29.38;48.57
28175;SHT30;59417;44.788;10.334;2022-07-22T07:53:26;29.33;48.91
28175;SHT30;59417;44.788;10.334;2022-07-22T07:55:53;29.28;48.77
28175;SHT30;59417;44.788;10.334;2022-07-22T07:58:19;29.33;49.56
28175;SHT30;59417;44.788;10.334;2022-07-22T08:00:46;29.57;49.66
28175;SHT30;59417;44.788;10.334;2022-07-22T08:03:12;29.49;49.16
28175;SHT30;59417;44.788;10.334;2022-07-22T08:05:38;29.49;49.00
28175;SHT30;59417;44.788;10.334;2022-07-22T08:08:13;29.54;49.27
28175;SHT30;59417;44.788;10.334;2022-07-22T08:10:38;29.46;50.02
28175;SHT30;59417;44.788;10.334;2022-07-22T08:13:30;29.61;49.89
28175;SHT30;59417;44.788;10.334;2022-07-22T08:16:15;29.76;49.74
28175;SHT30;59417;44.788;10.334;2022-07-22T08:18:41;29.77;48.99
28175;SHT30;59417;44.788;10.334;2022-07-22T08:21:08;29.77;49.51
28175;SHT30;59417;44.788;10.334;2022-07-22T08:23:39;29.70;49.05
28175;SHT30;59417;44.788;10.334;2022-07-22T08:26:05;29.71;48.97
28175;SHT30;59417;44.788;10.334;2022-07-22T08:28:31;29.84;49.57
28175;SHT30;59417;44.788;10.334;2022-07-22T08:30:57;29.98;49.28
28175;SHT30;59417;44.788;10.334;2022-07-22T08:33:25;30.07;49.67
28175;SHT30;59417;44.788;10.334;2022-07-22T08:35:52;30.22;49.23
28175;SHT30;59417;44.788;10.334;2022-07-22T08:38:17;30.34;48.79
28175;SHT30;59417;44.788;10.334;2022-07-22T08:40:44;30.35;50.73
28175;SHT30;59417;44.788;10.334;2022-07-22T08:43:10;30.58;48.64
28175;SHT30;59417;44.788;10.334;2022-07-22T08:45:36;30.63;49.06
28175;SHT30;59417;44.788;10.334;2022-07-22T08:48:02;30.69;47.53
28175;SHT30;59417;44.788;10.334;2022-07-22T08:50:41;30.69;47.53
28175;SHT30;59417;44.788;10.334;2022-07-22T08:53:12;30.78;47.80
28175;SHT30;59417;44.788;10.334;2022-07-22T08:55:47;30.99;47.92
28175;SHT30;59417;44.788;10.334;2022-07-22T08:58:14;31.17;46.85
28175;SHT30;59417;44.788;10.334;2022-07-22T09:00:40;31.26;47.35
28175;SHT30;59417;44.788;10.334;2022-07-22T09:03:23;30.96;46.53
28175;SHT30;59417;44.788;10.334;2022-07-22T09:05:54;30.86;47.70
28175;SHT30;59417;44.788;10.334;2022-07-22T09:08:21;30.78;48.08
28175;SHT30;59417;44.788;10.334;2022-07-22T09:11:20;30.87;47.89
28175;SHT30;59417;44.788;10.334;2022-07-22T09:14:06;31.06;47.47
28175;SHT30;59417;44.788;10.334;2022-07-22T09:16:48;31.24;46.96
28175;SHT30;59417;44.788;10.334;2022-07-22T09:19:31;31.30;47.62
28175;SHT30;59417;44.788;10.334;2022-07-22T09:22:39;31.36;47.14
28175;SHT30;59417;44.788;10.334;2022-07-22T09:25:23;31.41;46.77
28175;SHT30;59417;44.788;10.334;2022-07-22T09:28:21;31.57;46.66
28175;SHT30;59417;44.788;10.334;2022-07-22T09:31:06;31.74;45.65
28175;SHT30;59417;44.788;10.334;2022-07-22T09:33:37;31.77;46.36
28175;SHT30;59417;44.788;10.334;2022-07-22T09:36:26;31.92;46.32
28175;SHT30;59417;44.788;10.334;2022-07-22T09:38:53;31.88;46.57
28175;SHT30;59417;44.788;10.334;2022-07-22T09:41:20;32.02;46.77
28175;SHT30;59417;44.788;10.334;2022-07-22T09:43:48;32.12;47.28
28175;SHT30;59417;44.788;10.334;2022-07-22T09:46:15;32.21;46.40
28175;SHT30;59417;44.788;10.334;2022-07-22T09:49:04;32.29;46.12
28175;SHT30;59417;44.788;10.334;2022-07-22T09:51:54;32.29;46.26
28175;SHT30;59417;44.788;10.334;2022-07-22T09:54:31;32.32;47.12
28175;SHT30;59417;44.788;10.334;2022-07-22T09:56:57;32.42;47.28
28175;SHT30;59417;44.788;10.334;2022-07-22T09:59:24;32.53;45.97
28175;SHT30;59417;44.788;10.334;2022-07-22T10:01:58;32.66;46.32
28175;SHT30;59417;44.788;10.334;2022-07-22T10:04:24;32.70;46.33
28175;SHT30;59417;44.788;10.334;2022-07-22T10:06:51;32.84;45.33
28175;SHT30;59417;44.788;10.334;2022-07-22T10:09:21;32.97;45.12
28175;SHT30;59417;44.788;10.334;2022-07-22T10:11:48;33.06;44.76
28175;SHT30;59417;44.788;10.334;2022-07-22T10:14:18;33.04;44.79
28175;SHT30;59417;44.788;10.334;2022-07-22T10:16:45;33.13;44.82
28175;SHT30;59417;44.788;10.334;2022-07-22T10:19:11;33.16;43.86
28175;SHT30;59417;44.788;10.334;2022-07-22T10:21:38;33.19;44.20
28175;SHT30;59417;44.788;10.334;2022-07-22T10:24:13;33.24;43.35
28175;SHT30;59417;44.788;10.334;2022-07-22T10:26:58;33.13;43.89
28175;SHT30;59417;44.788;10.334;2022-07-22T10:29:41;33.16;43.99
28175;SHT30;59417;44.788;10.334;2022-07-22T10:45:31;33.72;45.00
28175;SHT30;59417;44.788;10.334;2022-07-22T10:48:02;33.81;45.17
28175;SHT30;59417;44.788;10.334;2022-07-22T10:53:15;34.00;45.27
28175;SHT30;59417;44.788;10.334;2022-07-22T11:01:07;34.11;45.35
28175;SHT30;59417;44.788;10.334;2022-07-22T11:03:35;34.21;44.93
28175;SHT30;59417;44.788;10.334;2022-07-22T11:06:34;34.31;44.36
28175;SHT30;59417;44.788;10.334;2022-07-22T11:09:05;34.41;45.32
28175;SHT30;59417;44.788;10.334;2022-07-22T11:11:45;34.53;43.75
28175;SHT30;59417;44.788;10.334;2022-07-22T11:14:34;34.42;44.03
28175;SHT30;59417;44.788;10.334;2022-07-22T11:17:09;34.49;42.35
28175;SHT30;59417;44.788;10.334;2022-07-22T11:19:38;34.42;42.64
28175;SHT30;59417;44.788;10.334;2022-07-22T11:22:09;34.57;44.28
28175;SHT30;59417;44.788;10.334;2022-07-22T11:24:48;34.70;44.01
28175;SHT30;59417;44.788;10.334;2022-07-22T11:27:16;34.84;43.84
28175;SHT30;59417;44.788;10.334;2022-07-22T11:29:42;35.00;43.46
28175;SHT30;59417;44.788;10.334;2022-07-22T11:32:13;35.06;43.68
28175;SHT30;59417;44.788;10.334;2022-07-22T11:34:41;35.15;42.44
28175;SHT30;59417;44.788;10.334;2022-07-22T11:37:18;35.30;41.71
28175;SHT30;59417;44.788;10.334;2022-07-22T11:39:45;35.35;41.71
28175;SHT30;59417;44.788;10.334;2022-07-22T11:42:10;35.29;42.08
28175;SHT30;59417;44.788;10.334;2022-07-22T11:44:38;35.41;41.47
28175;SHT30;59417;44.788;10.334;2022-07-22T11:47:05;35.57;40.90
28175;SHT30;59417;44.788;10.334;2022-07-22T11:49:33;35.62;40.97
28175;SHT30;59417;44.788;10.334;2022-07-22T11:52:00;35.81;40.24
28175;SHT30;59417;44.788;10.334;2022-07-22T11:54:29;35.81;39.30
28175;SHT30;59417;44.788;10.334;2022-07-22T11:56:57;35.80;39.36
28175;SHT30;59417;44.788;10.334;2022-07-22T11:59:23;35.86;40.00
28175;SHT30;59417;44.788;10.334;2022-07-22T12:01:52;35.92;40.54
28175;SHT30;59417;44.788;10.334;2022-07-22T12:04:23;35.98;41.80
28175;SHT30;59417;44.788;10.334;2022-07-22T12:06:49;36.12;41.16
28175;SHT30;59417;44.788;10.334;2022-07-22T12:09:23;36.21;40.97
28175;SHT30;59417;44.788;10.334;2022-07-22T12:11:53;36.29;40.19
28175;SHT30;59417;44.788;10.334;2022-07-22T12:14:25;36.37;39.87
28175;SHT30;59417;44.788;10.334;2022-07-22T12:17:04;36.46;40.47
28175;SHT30;59417;44.788;10.334;2022-07-22T12:19:32;36.56;39.63
28175;SHT30;59417;44.788;10.334;2022-07-22T12:22:01;36.70;39.20
28175;SHT30;59417;44.788;10.334;2022-07-22T12:26:58;36.87;38.48
28175;SHT30;59417;44.788;10.334;2022-07-22T12:32:00;36.98;38.60
28175;SHT30;59417;44.788;10.334;2022-07-22T12:34:47;37.01;37.78
28175;SHT30;59417;44.788;10.334;2022-07-22T12:40:05;36.88;38.80
28175;SHT30;59417;44.788;10.334;2022-07-22T12:42:36;37.03;39.41
28175;SHT30;59417;44.788;10.334;2022-07-22T12:45:09;37.08;38.73
28175;SHT30;59417;44.788;10.334;2022-07-22T12:47:46;37.26;38.56
28175;SHT30;59417;44.788;10.334;2022-07-22T12:52:44;37.37;39.86
28175;SHT30;59417;44.788;10.334;2022-07-22T12:55:16;37.45;39.17
28175;SHT30;59417;44.788;10.334;2022-07-22T12:57:42;37.58;39.12
28175;SHT30;59417;44.788;10.334;2022-07-22T13:00:09;37.64;39.78
28175;SHT30;59417;44.788;10.334;2022-07-22T13:02:43;37.61;39.07
28175;SHT30;59417;44.788;10.334;2022-07-22T13:05:09;37.67;38.88
28175;SHT30;59417;44.788;10.334;2022-07-22T13:07:35;37.69;38.19
28175;SHT30;59417;44.788;10.334;2022-07-22T13:10:01;37.72;37.70
28175;SHT30;59417;44.788;10.334;2022-07-22T13:12:29;37.67;38.12
28175;SHT30;59417;44.788;10.334;2022-07-22T13:14:55;37.71;37.29
28175;SHT30;59417;44.788;10.334;2022-07-22T13:17:20;37.68;37.07
28175;SHT30;59417;44.788;10.334;2022-07-22T13:19:46;37.64;36.23
28175;SHT30;59417;44.788;10.334;2022-07-22T13:22:11;37.62;37.37
28175;SHT30;59417;44.788;10.334;2022-07-22T13:24:39;37.67;37.32
28175;SHT30;59417;44.788;10.334;2022-07-22T13:27:05;37.74;37.62
28175;SHT30;59417;44.788;10.334;2022-07-22T13:29:31;37.75;37.37
28175;SHT30;59417;44.788;10.334;2022-07-22T13:31:57;37.77;37.95
28175;SHT30;59417;44.788;10.334;2022-07-22T13:34:23;37.68;37.50
28175;SHT30;59417;44.788;10.334;2022-07-22T13:36:49;37.55;37.49
28175;SHT30;59417;44.788;10.334;2022-07-22T13:39:15;37.49;37.52
28175;SHT30;59417;44.788;10.334;2022-07-22T13:41:40;37.41;38.09
28175;SHT30;59417;44.788;10.334;2022-07-22T13:44:06;37.45;38.10
28175;SHT30;59417;44.788;10.334;2022-07-22T13:46:35;37.34;37.86
28175;SHT30;59417;44.788;10.334;2022-07-22T13:49:01;37.06;37.58
28175;SHT30;59417;44.788;10.334;2022-07-22T13:51:27;36.77;38.65
28175;SHT30;59417;44.788;10.334;2022-07-22T13:53:53;36.47;39.41
28175;SHT30;59417;44.788;10.334;2022-07-22T13:56:21;36.26;39.84
28175;SHT30;59417;44.788;10.334;2022-07-22T13:58:50;36.11;39.79
28175;SHT30;59417;44.788;10.334;2022-07-22T14:01:17;35.89;40.08
28175;SHT30;59417;44.788;10.334;2022-07-22T14:03:42;35.74;39.69
28175;SHT30;59417;44.788;10.334;2022-07-22T14:06:08;35.57;38.87
28175;SHT30;59417;44.788;10.334;2022-07-22T14:08:35;35.48;41.27
28175;SHT30;59417;44.788;10.334;2022-07-22T14:11:01;35.40;40.95
28175;SHT30;59417;44.788;10.334;2022-07-22T14:13:27;35.33;40.68
28175;SHT30;59417;44.788;10.334;2022-07-22T14:15:52;35.26;41.32
28175;SHT30;59417;44.788;10.334;2022-07-22T14:18:18;35.15;40.63
28175;SHT30;59417;44.788;10.334;2022-07-22T14:20:44;35.10;40.89
28175;SHT30;59417;44.788;10.334;2022-07-22T14:23:10;35.02;41.31
28175;SHT30;59417;44.788;10.334;2022-07-22T14:25:37;34.99;41.71
28175;SHT30;59417;44.788;10.334;2022-07-22T14:28:04;34.99;41.29
28175;SHT30;59417;44.788;10.334;2022-07-22T14:30:31;34.90;41.29
28175;SHT30;59417;44.788;10.334;2022-07-22T14:32:56;34.87;41.96
28175;SHT30;59417;44.788;10.334;2022-07-22T14:35:22;34.78;42.61
28175;SHT30;59417;44.788;10.334;2022-07-22T14:37:48;34.73;42.08
28175;SHT30;59417;44.788;10.334;2022-07-22T14:40:14;34.72;42.25
28175;SHT30;59417;44.788;10.334;2022-07-22T14:42:40;34.69;41.99
28175;SHT30;59417;44.788;10.334;2022-07-22T14:45:06;34.70;41.51
28175;SHT30;59417;44.788;10.334;2022-07-22T14:47:38;34.76;40.75
28175;SHT30;59417;44.788;10.334;2022-07-22T14:50:06;34.74;41.46
28175;SHT30;59417;44.788;10.334;2022-07-22T14:52:32;34.69;42.70
28175;SHT30;59417;44.788;10.334;2022-07-22T14:54:58;34.66;42.65
28175;SHT30;59417;44.788;10.334;2022-07-22T14:57:23;34.69;43.59
28175;SHT30;59417;44.788;10.334;2022-07-22T14:59:49;34.66;43.64
28175;SHT30;59417;44.788;10.334;2022-07-22T15:02:15;34.62;43.71
28175;SHT30;59417;44.788;10.334;2022-07-22T15:04:40;34.57;43.65
28175;SHT30;59417;44.788;10.334;2022-07-22T15:07:06;34.60;43.39
28175;SHT30;59417;44.788;10.334;2022-07-22T15:09:32;34.56;43.58
28175;SHT30;59417;44.788;10.334;2022-07-22T15:11:57;34.52;44.01
28175;SHT30;59417;44.788;10.334;2022-07-22T15:14:23;34.55;43.43
28175;SHT30;59417;44.788;10.334;2022-07-22T15:16:49;34.55;42.11
28175;SHT30;59417;44.788;10.334;2022-07-22T15:19:15;34.60;43.36
28175;SHT30;59417;44.788;10.334;2022-07-22T15:21:40;34.59;43.75
28175;SHT30;59417;44.788;10.334;2022-07-22T15:24:06;34.55;43.45
28175;SHT30;59417;44.788;10.334;2022-07-22T15:26:32;34.55;44.29
28175;SHT30;59417;44.788;10.334;2022-07-22T15:28:57;34.56;43.28
28175;SHT30;59417;44.788;10.334;2022-07-22T15:31:25;34.55;42.77
28175;SHT30;59417;44.788;10.334;2022-07-22T15:33:52;34.62;42.87
28175;SHT30;59417;44.788;10.334;2022-07-22T15:36:19;34.70;42.80
28175;SHT30;59417;44.788;10.334;2022-07-22T15:38:45;34.74;43.09
28175;SHT30;59417;44.788;10.334;2022-07-22T15:41:11;34.78;42.12
28175;SHT30;59417;44.788;10.334;2022-07-22T15:43:38;34.78;43.47
28175;SHT30;59417;44.788;10.334;2022-07-22T15:46:05;34.76;44.66
28175;SHT30;59417;44.788;10.334;2022-07-22T15:48:31;34.84;41.64
28175;SHT30;59417;44.788;10.334;2022-07-22T15:50:57;35.20;41.11
28175;SHT30;59417;44.788;10.334;2022-07-22T15:53:23;35.45;40.85
28175;SHT30;59417;44.788;10.334;2022-07-22T15:55:49;35.75;39.68